Terminal Aerodrome Forecast
Issued by NWS Melbourne, FL

Home | Current Version | Previous Version | Text Only | Print | Product List | Glossary On
Versions: 1 2 3 4 5 6 7 8 9 10 11 12 13 14 15
000
FTUS42 KMLB 231519 AAC
TAFMLB
TAF AMD
KMLB 231519Z 2315/2412 06015G23KT P6SM VCSH SCT020 BKN030 OVC050
      TEMPO 2315/2317 5SM SHRA BKN020 OVC030
     FM231700 06017G25KT P6SM BKN035
     FM240000 06016G23KT P6SM SCT030 BKN040
     FM240300 07012KT P6SM SCT030=

USA.gov is the U.S. government's official web portal to all federal, state and local government web resources and services.